createdAt,value
2022-08-18T00:01:06.243Z,8.03
2022-08-18T00:03:53.270Z,8.20
2022-08-18T00:06:20.416Z,7.07
2022-08-18T00:08:47.187Z,7.25
2022-08-18T00:11:13.939Z,6.88
2022-08-18T00:13:41.393Z,6.90
2022-08-18T00:16:08.055Z,7.20
2022-08-18T00:18:34.667Z,6.85
2022-08-18T00:21:02.261Z,6.85
2022-08-18T00:23:29.977Z,7.80
2022-08-18T00:25:59.595Z,7.70
2022-08-18T00:28:26.527Z,10.93
2022-08-18T00:30:53.834Z,8.13
2022-08-18T00:33:21.164Z,8.30
2022-08-18T00:35:47.921Z,7.72
2022-08-18T00:38:24.971Z,8.02
2022-08-18T00:40:54.602Z,8.57
2022-08-18T00:43:45.137Z,7.72
2022-08-18T00:46:18.294Z,7.50
2022-08-18T00:48:48.626Z,7.88
2022-08-18T00:51:29.160Z,7.68
2022-08-18T00:53:55.939Z,8.57
2022-08-18T00:56:28.574Z,10.27
2022-08-18T00:59:02.984Z,7.47
2022-08-18T01:01:32.925Z,8.40
2022-08-18T01:04:12.510Z,10.65
2022-08-18T01:06:44.898Z,8.50
2022-08-18T01:09:11.996Z,8.85
2022-08-18T01:11:39.401Z,9.10
2022-08-18T01:14:09.039Z,8.70
2022-08-18T01:16:57.349Z,9.75
2022-08-18T01:19:45.020Z,8.87
2022-08-18T01:22:21.371Z,8.88
2022-08-18T01:25:23.556Z,8.65
2022-08-18T01:27:54.186Z,8.10
2022-08-18T01:30:28.053Z,8.75
2022-08-18T01:32:55.359Z,9.15
2022-08-18T01:35:25.638Z,12.18
2022-08-18T01:37:54.037Z,9.13
2022-08-18T01:41:21.928Z,8.45
2022-08-18T01:43:10.361Z,9.32
2022-08-18T01:45:37.365Z,9.23
2022-08-18T01:48:04.933Z,8.50
2022-08-18T01:50:35.212Z,8.48
2022-08-18T01:53:05.437Z,9.43
2022-08-18T01:55:37.045Z,8.35
2022-08-18T01:58:04.775Z,8.37
2022-08-18T02:00:32.453Z,8.52
2022-08-18T02:03:02.603Z,8.82
2022-08-18T02:05:38.709Z,9.18
2022-08-18T02:08:07.192Z,8.82
2022-08-18T02:10:37.921Z,9.07
2022-08-18T02:13:05.357Z,9.48
2022-08-18T02:15:34.895Z,8.88
2022-08-18T02:18:01.787Z,8.68
2022-08-18T02:20:28.648Z,9.23
2022-08-18T02:22:55.307Z,10.67
2022-08-18T02:25:23.053Z,8.70
2022-08-18T02:27:50.436Z,9.30
2022-08-18T02:30:18.782Z,9.75
2022-08-18T02:32:45.525Z,9.25
2022-08-18T02:35:12.572Z,9.38
2022-08-18T02:37:42.192Z,10.38
2022-08-18T02:40:15.103Z,9.00
2022-08-18T02:42:43.765Z,9.20
2022-08-18T02:45:11.180Z,9.18
2022-08-18T02:47:37.789Z,9.52
2022-08-18T02:50:04.976Z,10.60
2022-08-18T02:52:34.538Z,10.00
2022-08-18T02:55:04.561Z,8.75
2022-08-18T02:57:32.206Z,8.73
2022-08-18T03:00:00.241Z,8.95
2022-08-18T03:02:26.950Z,9.32
2022-08-18T03:04:53.749Z,8.80
2022-08-18T03:07:20.440Z,9.65
2022-08-18T03:09:47.087Z,9.75
2022-08-18T03:12:13.687Z,13.77
2022-08-18T03:14:40.306Z,21.30
2022-08-18T03:17:09.022Z,34.73
2022-08-18T03:19:36.033Z,62.13
2022-08-18T03:22:03.569Z,106.28
2022-08-18T03:24:32.319Z,110.93
2022-08-18T03:27:01.624Z,120.68
2022-08-18T03:29:32.518Z,194.73
2022-08-18T03:32:04.038Z,215.83
2022-08-18T03:34:31.647Z,227.60
2022-08-18T03:36:58.835Z,242.65
2022-08-18T03:39:27.961Z,255.13
2022-08-18T03:41:58.353Z,264.25
2022-08-18T03:44:32.402Z,281.43
2022-08-18T03:47:00.970Z,287.70
2022-08-18T03:49:27.917Z,294.25
2022-08-18T03:51:55.568Z,294.42
2022-08-18T03:54:22.979Z,291.23
2022-08-18T03:56:49.849Z,289.45
2022-08-18T03:59:22.617Z,297.80
2022-08-18T04:01:51.591Z,290.77
2022-08-18T04:04:20.876Z,287.15
2022-08-18T04:06:54.847Z,283.13
2022-08-18T04:09:22.926Z,283.48
2022-08-18T04:11:49.691Z,277.08
2022-08-18T04:14:19.210Z,276.45
2022-08-18T04:16:46.934Z,276.25
2022-08-18T04:19:14.194Z,261.60
2022-08-18T04:21:53.721Z,249.20
2022-08-18T04:24:21.206Z,256.48
2022-08-18T04:26:48.664Z,262.73
2022-08-18T04:29:17.745Z,270.75
2022-08-18T04:31:44.687Z,268.20
2022-08-18T04:34:12.418Z,264.42
2022-08-18T04:36:40.110Z,255.55
2022-08-18T04:39:08.951Z,253.35
2022-08-18T04:41:39.763Z,247.60
2022-08-18T04:44:08.832Z,238.43
2022-08-18T04:46:47.797Z,234.02
2022-08-18T04:49:16.212Z,225.20
2022-08-18T04:52:34.112Z,219.65
2022-08-18T04:54:57.039Z,212.03
2022-08-18T04:57:24.048Z,212.25
2022-08-18T04:59:52.429Z,214.40
2022-08-18T05:02:21.100Z,201.35
2022-08-18T05:04:48.086Z,185.47
2022-08-18T05:07:22.488Z,179.80
2022-08-18T05:09:52.408Z,181.30
2022-08-18T05:12:28.883Z,186.13
2022-08-18T05:14:58.019Z,219.90
2022-08-18T05:17:29.968Z,230.98
2022-08-18T05:19:58.956Z,217.63
2022-08-18T05:22:30.421Z,228.75
2022-08-18T05:24:58.277Z,220.55
2022-08-18T05:27:25.126Z,214.00
2022-08-18T05:29:51.999Z,222.02
2022-08-18T05:32:37.248Z,207.57
2022-08-18T05:35:12.104Z,222.95
2022-08-18T05:37:48.075Z,212.60
2022-08-18T05:40:15.515Z,222.93
2022-08-18T05:42:45.625Z,222.70
2022-08-18T05:45:16.910Z,228.18
2022-08-18T05:47:43.683Z,235.00
2022-08-18T05:50:18.494Z,239.27
2022-08-18T05:53:13.305Z,253.98
2022-08-18T05:56:12.698Z,258.08
2022-08-18T05:58:45.966Z,267.88
2022-08-18T06:01:18.456Z,277.23
2022-08-18T06:04:23.716Z,274.40
2022-08-18T06:06:52.968Z,264.63
2022-08-18T06:09:36.782Z,264.83
2022-08-18T06:12:38.205Z,264.52
2022-08-18T06:15:24.634Z,260.57
2022-08-18T06:17:59.911Z,263.63
2022-08-18T06:21:04.939Z,260.30
2022-08-18T06:24:22.297Z,253.55
2022-08-18T06:27:10.207Z,276.58
2022-08-18T06:29:39.678Z,293.38
2022-08-18T06:32:28.356Z,299.67
2022-08-18T06:35:11.738Z,298.15
2022-08-18T06:38:09.083Z,293.42
2022-08-18T06:40:38.210Z,296.38
2022-08-18T06:43:10.070Z,270.00
2022-08-18T06:45:41.895Z,282.90
2022-08-18T06:48:43.979Z,312.45
2022-08-18T06:51:15.283Z,312.65
2022-08-18T06:53:54.317Z,306.00
2022-08-18T06:56:41.562Z,305.23
2022-08-18T06:59:26.150Z,306.75
2022-08-18T07:02:21.771Z,315.45
2022-08-18T07:05:20.490Z,309.27
2022-08-18T07:08:12.291Z,294.88
2022-08-18T07:10:51.926Z,297.00
2022-08-18T07:13:31.019Z,299.00
2022-08-18T07:16:34.488Z,314.38
2022-08-18T07:19:13.012Z,305.50
2022-08-18T07:21:47.699Z,297.80
2022-08-18T07:24:27.340Z,301.38
2022-08-18T07:27:07.956Z,275.70
2022-08-18T07:29:57.610Z,259.10
2022-08-18T07:32:30.346Z,285.47
2022-08-18T07:35:00.684Z,305.20
2022-08-18T07:37:56.334Z,291.75
2022-08-18T07:40:38.382Z,293.25
2022-08-18T07:43:24.033Z,267.30
2022-08-18T07:45:56.032Z,242.43
2022-08-18T07:48:40.851Z,223.90
2022-08-18T07:51:24.097Z,205.53
2022-08-18T07:54:01.901Z,194.88
2022-08-18T07:57:06.824Z,207.32
2022-08-18T07:59:59.688Z,202.52
2022-08-18T08:02:54.009Z,193.40
2022-08-18T08:05:56.400Z,186.95
2022-08-18T08:08:35.768Z,194.40
2022-08-18T08:11:37.547Z,190.23
2022-08-18T08:14:04.224Z,198.48
2022-08-18T08:16:44.495Z,230.70
2022-08-18T08:19:14.158Z,232.80
2022-08-18T08:21:52.867Z,214.57
2022-08-18T08:24:39.622Z,191.82
2022-08-18T08:27:51.458Z,187.80
2022-08-18T08:30:21.552Z,185.82
2022-08-18T08:33:17.565Z,202.95
2022-08-18T08:36:05.724Z,173.38
2022-08-18T08:38:47.739Z,196.35
2022-08-18T08:41:26.649Z,168.47
2022-08-18T08:44:06.392Z,145.88
2022-08-18T08:46:47.577Z,164.52
2022-08-18T08:49:42.631Z,142.50
2022-08-18T08:52:24.840Z,123.97
2022-08-18T08:55:03.180Z,115.63
2022-08-18T08:57:39.211Z,159.48
2022-08-18T09:00:09.090Z,103.70
2022-08-18T09:02:58.756Z,95.60
2022-08-18T09:05:29.871Z,105.85
2022-08-18T09:08:28.396Z,76.50
2022-08-18T09:11:12.196Z,75.60
2022-08-18T09:13:44.597Z,73.97
2022-08-18T09:16:41.409Z,69.32
2022-08-18T09:19:45.562Z,71.80
2022-08-18T09:22:24.629Z,57.80
2022-08-18T09:24:54.884Z,59.65
2022-08-18T09:28:11.803Z,84.35
2022-08-18T09:31:01.664Z,61.90
2022-08-18T09:34:21.429Z,70.10
2022-08-18T09:36:58.036Z,68.85
2022-08-18T09:39:56.636Z,70.78
2022-08-18T09:42:50.609Z,44.45
2022-08-18T09:45:34.378Z,51.83
2022-08-18T09:51:33.023Z,28.42
2022-08-18T09:54:20.850Z,25.98
2022-08-18T09:56:54.431Z,27.38
2022-08-18T09:59:35.168Z,21.00
2022-08-18T10:02:24.199Z,20.05
2022-08-18T10:05:20.436Z,9.82
2022-08-18T10:07:56.188Z,8.80
2022-08-18T10:14:02.860Z,10.37
2022-08-18T10:17:21.683Z,9.57
2022-08-18T10:20:04.718Z,9.55
2022-08-18T10:22:47.886Z,9.27
2022-08-18T10:25:46.446Z,9.10
2022-08-18T10:31:56.164Z,9.35
2022-08-18T10:34:51.947Z,9.90
2022-08-18T10:37:32.295Z,8.93
2022-08-18T10:40:08.166Z,8.80
2022-08-18T10:42:47.620Z,7.75
2022-08-18T10:45:28.311Z,10.27
2022-08-18T10:48:16.749Z,9.43
2022-08-18T10:51:05.471Z,13.63
2022-08-18T10:53:59.426Z,10.88
2022-08-18T10:56:33.755Z,9.63
2022-08-18T10:59:18.973Z,10.45
2022-08-18T11:02:30.940Z,10.87
2022-08-18T11:04:59.958Z,8.70
2022-08-18T11:07:34.735Z,8.82
2022-08-18T11:10:29.813Z,10.65
2022-08-18T11:13:24.472Z,13.30
2022-08-18T11:16:10.330Z,7.70
2022-08-18T11:18:43.168Z,7.77
2022-08-18T11:24:44.698Z,7.68
2022-08-18T11:27:22.727Z,8.40
2022-08-18T11:29:51.488Z,9.98
2022-08-18T11:32:32.773Z,7.95
2022-08-18T11:35:27.739Z,7.43
2022-08-18T11:38:01.395Z,10.30
2022-08-18T11:41:10.716Z,7.85
2022-08-18T11:43:40.752Z,7.80
2022-08-18T11:46:28.054Z,7.65
2022-08-18T11:48:57.253Z,7.15
2022-08-18T11:51:32.162Z,12.88
2022-08-18T11:54:12.731Z,8.70
2022-08-18T11:56:39.495Z,6.80
2022-08-18T11:59:07.747Z,6.93
2022-08-18T12:01:42.177Z,7.43
2022-08-18T12:04:37.603Z,7.83
2022-08-18T12:07:10.912Z,7.97
2022-08-18T12:10:19.449Z,8.73
2022-08-18T12:12:48.603Z,6.70
2022-08-18T12:15:24.094Z,7.18
2022-08-18T12:17:54.113Z,8.77
2022-08-18T12:20:21.865Z,7.53
2022-08-18T12:22:50.163Z,9.43
2022-08-18T12:25:25.381Z,6.82
2022-08-18T12:27:55.114Z,12.00
2022-08-18T12:30:27.471Z,11.02
2022-08-18T12:32:56.093Z,9.13
2022-08-18T12:35:32.784Z,6.90
2022-08-18T12:40:51.080Z,8.43
2022-08-18T12:43:18.413Z,10.07
2022-08-18T12:45:48.624Z,6.43
2022-08-18T12:48:15.471Z,7.25
2022-08-18T12:50:54.301Z,6.22
2022-08-18T12:53:30.709Z,9.10
2022-08-18T12:56:22.795Z,6.67
2022-08-18T12:58:52.786Z,6.72
2022-08-18T13:01:20.260Z,7.32
2022-08-18T13:04:11.011Z,7.15
2022-08-18T13:06:45.384Z,5.68
2022-08-18T13:09:34.882Z,7.70
2022-08-18T13:12:16.147Z,9.13
2022-08-18T13:14:43.655Z,9.32
2022-08-18T13:17:15.273Z,6.97
2022-08-18T13:19:57.699Z,8.73
2022-08-18T13:22:32.875Z,8.50
2022-08-18T13:25:01.801Z,7.95
2022-08-18T13:27:33.145Z,8.13
2022-08-18T13:30:16.701Z,7.80
2022-08-18T13:32:58.917Z,10.32
2022-08-18T13:35:29.792Z,6.97
2022-08-18T13:38:06.529Z,8.95
2022-08-18T13:40:46.980Z,9.50
2022-08-18T13:43:16.094Z,10.68
2022-08-18T13:45:46.893Z,9.70
2022-08-18T13:48:19.467Z,6.72
2022-08-18T13:50:46.520Z,7.80
2022-08-18T13:53:16.399Z,9.07
2022-08-18T13:55:43.483Z,8.57
2022-08-18T13:58:17.587Z,11.80
2022-08-18T14:00:52.343Z,9.35
2022-08-18T14:03:42.408Z,10.80
2022-08-18T14:06:13.230Z,8.63
2022-08-18T14:08:40.958Z,7.78
2022-08-18T14:11:09.078Z,11.53
2022-08-18T14:13:38.143Z,10.40
2022-08-18T14:16:10.501Z,9.30
2022-08-18T14:18:39.100Z,7.05
2022-08-18T14:21:24.940Z,10.50
2022-08-18T14:24:14.530Z,8.75
2022-08-18T14:26:50.196Z,6.90
2022-08-18T14:29:46.294Z,7.28
2022-08-18T14:32:06.627Z,10.38
2022-08-18T14:34:33.410Z,9.47
2022-08-18T14:37:00.031Z,7.38
2022-08-18T14:39:28.811Z,6.93
2022-08-18T14:41:58.571Z,9.68
2022-08-18T14:44:32.354Z,7.88
2022-08-18T14:47:02.425Z,7.47
2022-08-18T14:49:31.548Z,10.48
2022-08-18T14:52:01.336Z,9.13
2022-08-18T14:54:30.601Z,10.55
2022-08-18T14:57:01.701Z,13.27
2022-08-18T14:59:30.990Z,10.23
2022-08-18T15:02:06.215Z,6.72
2022-08-18T15:04:39.273Z,7.68
2022-08-18T15:07:25.648Z,9.82
2022-08-18T15:10:14.466Z,7.35
2022-08-18T15:12:41.990Z,13.30
2022-08-18T15:15:12.384Z,7.72
2022-08-18T15:17:44.584Z,10.02
2022-08-18T15:20:17.356Z,9.63
2022-08-18T15:23:04.762Z,8.32
2022-08-18T15:25:47.027Z,8.60
2022-08-18T15:28:26.227Z,9.40
2022-08-18T15:33:42.812Z,7.90
2022-08-18T15:36:10.253Z,8.13
2022-08-18T15:38:37.201Z,11.37
2022-08-18T15:41:06.358Z,8.18
2022-08-18T15:43:39.931Z,8.60
2022-08-18T15:46:14.056Z,9.65
2022-08-18T15:48:43.678Z,8.10
2022-08-18T15:51:11.927Z,9.33
2022-08-18T15:53:44.872Z,10.52
2022-08-18T15:56:21.929Z,11.13
2022-08-18T15:58:52.663Z,10.20
2022-08-18T16:01:32.410Z,10.48
2022-08-18T16:04:01.256Z,8.50
2022-08-18T16:06:32.429Z,8.43
2022-08-18T16:09:01.090Z,10.18
2022-08-18T16:11:29.803Z,10.85
2022-08-18T16:13:58.990Z,10.55
2022-08-18T16:16:35.781Z,9.77
2022-08-18T16:19:07.034Z,14.25
2022-08-18T16:21:40.414Z,8.95
2022-08-18T16:24:10.627Z,10.70
2022-08-18T16:26:41.472Z,8.10
2022-08-18T16:29:08.107Z,10.63
2022-08-18T16:31:34.751Z,11.30
2022-08-18T16:34:01.490Z,8.65
2022-08-18T16:36:28.289Z,12.85
2022-08-18T16:38:58.048Z,9.15
2022-08-18T16:41:26.330Z,9.90
2022-08-18T16:43:52.998Z,9.23
2022-08-18T16:46:26.480Z,11.17
2022-08-18T16:48:55.185Z,10.75
2022-08-18T16:51:25.449Z,10.20
2022-08-18T16:53:53.375Z,8.35
2022-08-18T16:56:26.614Z,10.65
2022-08-18T16:59:12.549Z,9.80
2022-08-18T17:01:58.887Z,11.30
2022-08-18T17:04:33.467Z,13.02
2022-08-18T17:07:04.999Z,10.63
2022-08-18T17:09:33.730Z,8.77
2022-08-18T17:12:01.238Z,13.25
2022-08-18T17:14:30.601Z,12.90
2022-08-18T17:16:58.621Z,9.10
2022-08-18T17:19:33.671Z,10.00
2022-08-18T17:22:02.277Z,9.33
2022-08-18T17:24:32.021Z,10.85
2022-08-18T17:27:26.535Z,10.30
2022-08-18T17:30:03.244Z,8.30
2022-08-18T17:32:50.185Z,9.25
2022-08-18T17:35:28.628Z,9.70
2022-08-18T17:38:57.144Z,11.90
2022-08-18T17:41:25.425Z,9.60
2022-08-18T17:43:55.662Z,11.45
2022-08-18T17:46:29.770Z,10.35
2022-08-18T17:49:10.054Z,11.23
2022-08-18T17:51:44.372Z,11.10
2022-08-18T17:54:26.720Z,10.45
2022-08-18T17:57:04.324Z,9.93
2022-08-18T18:00:17.291Z,11.98
2022-08-18T18:02:45.665Z,9.60
2022-08-18T18:05:20.738Z,10.48
2022-08-18T18:07:50.479Z,8.18
2022-08-18T18:10:23.199Z,11.63
2022-08-18T18:13:13.333Z,10.52
2022-08-18T18:15:49.156Z,9.55
2022-08-18T18:18:24.932Z,7.72
2022-08-18T18:21:22.265Z,11.05
2022-08-18T18:24:10.347Z,8.90
2022-08-18T18:26:44.877Z,10.68
2022-08-18T18:29:28.802Z,9.77
2022-08-18T18:32:01.938Z,9.82
2022-08-18T18:34:39.891Z,11.23
2022-08-18T18:37:28.965Z,11.63
2022-08-18T18:39:58.983Z,11.57
2022-08-18T18:42:29.645Z,9.70
2022-08-18T18:45:02.449Z,10.13
2022-08-18T18:47:50.078Z,10.63
2022-08-18T18:50:52.886Z,9.48
2022-08-18T18:53:32.794Z,14.77
2022-08-18T18:56:11.430Z,9.73
2022-08-18T18:58:51.408Z,10.70
2022-08-18T19:01:32.088Z,11.90
2022-08-18T19:04:19.223Z,9.82
2022-08-18T19:07:00.159Z,10.63
2022-08-18T19:09:38.201Z,13.07
2022-08-18T19:12:23.408Z,10.10
2022-08-18T19:15:00.833Z,9.63
2022-08-18T19:17:35.727Z,9.13
2022-08-18T19:20:17.388Z,12.85
2022-08-18T19:22:57.220Z,9.85
2022-08-18T19:25:29.763Z,9.32
2022-08-18T19:28:26.954Z,11.23
2022-08-18T19:30:58.381Z,9.82
2022-08-18T19:33:43.569Z,13.52
2022-08-18T19:36:21.948Z,13.43
2022-08-18T19:39:04.666Z,12.65
2022-08-18T19:41:47.918Z,10.50
2022-08-18T19:44:24.406Z,12.73
2022-08-18T19:46:54.598Z,12.73
2022-08-18T19:49:36.480Z,15.63
2022-08-18T19:52:47.910Z,13.35
2022-08-18T19:55:46.205Z,14.32
2022-08-18T19:58:22.741Z,14.68
2022-08-18T20:00:57.182Z,14.50
2022-08-18T20:03:52.516Z,19.40
2022-08-18T20:06:40.647Z,19.50
2022-08-18T20:09:32.723Z,21.65
2022-08-18T20:12:14.227Z,26.10
2022-08-18T20:14:49.001Z,33.33
2022-08-18T20:17:24.610Z,36.95
2022-08-18T20:20:15.425Z,52.95
2022-08-18T20:22:44.518Z,66.05
2022-08-18T20:25:19.992Z,78.60
2022-08-18T20:28:12.720Z,85.78
2022-08-18T20:30:52.715Z,111.20
2022-08-18T20:33:25.818Z,131.02
2022-08-18T20:36:08.125Z,144.48
2022-08-18T20:38:35.313Z,158.90
2022-08-18T20:41:27.592Z,172.25
2022-08-18T20:43:58.666Z,177.45
2022-08-18T20:46:44.656Z,184.68
2022-08-18T20:49:45.794Z,185.38
2022-08-18T20:52:37.819Z,186.70
2022-08-18T20:55:30.663Z,196.48
2022-08-18T20:58:08.264Z,200.80
2022-08-18T21:00:40.482Z,198.20
2022-08-18T21:03:13.060Z,196.02
2022-08-18T21:05:43.650Z,203.77
2022-08-18T21:08:16.690Z,194.73
2022-08-18T21:10:57.882Z,199.75
2022-08-18T21:13:40.509Z,191.98
2022-08-18T21:16:13.023Z,197.57
2022-08-18T21:18:55.247Z,195.05
2022-08-18T21:21:29.809Z,191.60
2022-08-18T21:24:02.708Z,197.15
2022-08-18T21:26:34.439Z,204.02
2022-08-18T21:29:11.209Z,210.37
2022-08-18T21:31:49.942Z,205.57
2022-08-18T21:34:29.411Z,214.38
2022-08-18T21:37:08.580Z,224.50
2022-08-18T21:39:47.989Z,233.20
2022-08-18T21:42:21.010Z,238.98
2022-08-18T21:44:51.532Z,242.40
2022-08-18T21:47:20.733Z,243.18
2022-08-18T21:50:11.650Z,249.73
2022-08-18T21:52:51.058Z,250.85
2022-08-18T21:55:35.651Z,248.45
2022-08-18T21:58:16.703Z,248.75
2022-08-18T22:01:07.964Z,254.63
2022-08-18T22:03:36.443Z,254.33
2022-08-18T22:06:33.593Z,250.77
2022-08-18T22:09:28.408Z,263.88
2022-08-18T22:12:51.392Z,267.80
2022-08-18T22:15:28.249Z,270.92
2022-08-18T22:18:01.008Z,268.77
2022-08-18T22:20:45.196Z,265.92
2022-08-18T22:23:30.843Z,270.77
2022-08-18T22:26:12.495Z,271.70
2022-08-18T22:29:20.994Z,282.60
2022-08-18T22:31:51.240Z,272.35
2022-08-18T22:34:27.911Z,280.55
2022-08-18T22:37:09.494Z,276.70
2022-08-18T22:39:49.769Z,272.00
2022-08-18T22:42:20.802Z,277.73
2022-08-18T22:44:49.025Z,277.83
2022-08-18T22:47:16.302Z,282.58
2022-08-18T22:49:47.502Z,279.75
2022-08-18T22:52:19.388Z,280.33
2022-08-18T22:54:46.437Z,286.50
2022-08-18T22:57:17.562Z,289.40
2022-08-18T22:59:49.686Z,285.45
2022-08-18T23:02:22.149Z,286.33
2022-08-18T23:04:49.222Z,294.35
2022-08-18T23:07:16.015Z,290.25
2022-08-18T23:09:42.726Z,291.58
2022-08-18T23:12:15.728Z,291.42
2022-08-18T23:14:46.257Z,288.48
2022-08-18T23:17:14.139Z,283.63
2022-08-18T23:19:40.975Z,279.55
2022-08-18T23:22:09.341Z,279.38
2022-08-18T23:24:40.355Z,277.73
2022-08-18T23:27:07.910Z,272.67
2022-08-18T23:29:36.572Z,272.88
2022-08-18T23:32:05.796Z,281.63
2022-08-18T23:34:34.851Z,286.25
2022-08-18T23:37:03.102Z,283.02
2022-08-18T23:39:31.800Z,290.23
2022-08-18T23:41:59.306Z,290.67
2022-08-18T23:44:28.050Z,289.33
2022-08-18T23:46:57.921Z,285.07
2022-08-18T23:49:26.250Z,288.10
2022-08-18T23:51:56.116Z,293.98
2022-08-18T23:54:26.940Z,287.30
2022-08-18T23:56:53.655Z,294.70
2022-08-18T23:59:22.942Z,295.17
